createdAt,value
2022-08-14T00:01:10.323Z,4.17
2022-08-14T00:03:40.707Z,3.67
2022-08-14T00:06:14.041Z,3.87
2022-08-14T00:08:52.378Z,3.27
2022-08-14T00:11:19.630Z,4.03
2022-08-14T00:13:52.661Z,3.87
2022-08-14T00:16:41.352Z,3.00
2022-08-14T00:19:21.303Z,2.40
2022-08-14T00:21:51.960Z,3.13
2022-08-14T00:24:28.093Z,2.93
2022-08-14T00:26:58.310Z,2.70
2022-08-14T00:29:30.732Z,3.80
2022-08-14T00:32:50.254Z,3.50
2022-08-14T00:34:54.269Z,3.30
2022-08-14T00:37:20.751Z,2.60
2022-08-14T00:39:47.457Z,2.70
2022-08-14T00:42:52.517Z,3.07
2022-08-14T00:45:09.084Z,3.27
2022-08-14T00:47:44.761Z,2.33
2022-08-14T00:50:18.200Z,2.50
2022-08-14T00:52:50.921Z,3.00
2022-08-14T00:55:19.830Z,1.97
2022-08-14T00:58:07.356Z,3.23
2022-08-14T01:00:42.983Z,2.20
2022-08-14T01:03:20.006Z,2.10
2022-08-14T01:05:51.591Z,2.63
2022-08-14T01:08:51.978Z,1.83
2022-08-14T01:11:08.452Z,3.20
2022-08-14T01:13:42.814Z,3.30
2022-08-14T01:16:14.780Z,2.50
2022-08-14T01:19:02.174Z,2.50
2022-08-14T01:21:38.872Z,3.00
2022-08-14T01:24:22.880Z,2.77
2022-08-14T01:26:57.889Z,2.47
2022-08-14T01:29:59.143Z,2.90
2022-08-14T01:32:15.686Z,2.73
2022-08-14T01:35:20.562Z,3.30
2022-08-14T01:37:56.375Z,2.27
2022-08-14T01:40:36.237Z,2.87
2022-08-14T01:43:18.523Z,3.23
2022-08-14T01:45:57.693Z,3.30
2022-08-14T01:48:33.085Z,2.50
2022-08-14T01:51:03.216Z,2.43
2022-08-14T01:53:33.417Z,2.37
2022-08-14T01:56:04.659Z,2.63
2022-08-14T01:58:57.270Z,3.00
2022-08-14T02:01:26.667Z,3.13
2022-08-14T02:03:56.935Z,2.13
2022-08-14T02:06:32.473Z,2.67
2022-08-14T02:09:02.341Z,3.33
2022-08-14T02:11:31.373Z,2.50
2022-08-14T02:14:07.486Z,2.43
2022-08-14T02:16:51.056Z,2.40
2022-08-14T02:19:20.616Z,3.43
2022-08-14T02:21:52.020Z,2.67
2022-08-14T02:24:39.753Z,1.97
2022-08-14T02:28:23.173Z,2.80
2022-08-14T02:30:01.126Z,2.67
2022-08-14T02:32:44.530Z,2.60
2022-08-14T02:35:18.485Z,2.43
2022-08-14T02:37:48.396Z,2.60
2022-08-14T02:40:16.403Z,2.70
2022-08-14T02:42:54.257Z,3.07
2022-08-14T02:45:25.077Z,2.40
2022-08-14T02:48:02.795Z,4.00
2022-08-14T02:50:29.348Z,3.00
2022-08-14T02:53:03.302Z,2.03
2022-08-14T02:55:30.908Z,2.40
2022-08-14T02:58:03.068Z,3.43
2022-08-14T03:00:31.933Z,2.33
2022-08-14T03:02:59.542Z,2.10
2022-08-14T03:05:30.346Z,1.93
2022-08-14T03:08:11.903Z,2.07
2022-08-14T03:10:49.283Z,2.43
2022-08-14T03:13:19.639Z,2.30
2022-08-14T03:15:55.276Z,2.60
2022-08-14T03:18:31.583Z,2.50
2022-08-14T03:21:07.584Z,1.83
2022-08-14T03:23:36.310Z,2.80
2022-08-14T03:26:07.065Z,2.57
2022-08-14T03:28:34.225Z,2.30
2022-08-14T03:31:03.830Z,2.40
2022-08-14T03:33:37.989Z,3.00
2022-08-14T03:37:38.964Z,2.70
2022-08-14T03:39:14.764Z,3.50
2022-08-14T03:41:46.314Z,3.37
2022-08-14T03:45:18.578Z,2.40
2022-08-14T03:46:59.668Z,2.50
2022-08-14T03:49:30.014Z,3.10
2022-08-14T03:51:58.370Z,3.37
2022-08-14T03:54:28.167Z,2.63
2022-08-14T03:56:54.910Z,4.30
2022-08-14T03:59:21.683Z,2.00
2022-08-14T04:01:58.107Z,2.83
2022-08-14T04:04:28.186Z,2.80
2022-08-14T04:06:54.876Z,2.40
2022-08-14T04:09:26.723Z,2.03
2022-08-14T04:11:53.840Z,3.03
2022-08-14T04:14:20.472Z,3.77
2022-08-14T04:16:47.991Z,3.23
2022-08-14T04:19:19.849Z,2.90
2022-08-14T04:22:02.910Z,4.20
2022-08-14T04:24:38.037Z,3.47
2022-08-14T04:27:09.597Z,2.70
2022-08-14T04:29:38.565Z,3.20
2022-08-14T04:33:01.027Z,3.10
2022-08-14T04:34:56.339Z,4.10
2022-08-14T04:37:42.943Z,2.90
2022-08-14T04:40:28.742Z,2.83
2022-08-14T04:43:17.331Z,3.10
2022-08-14T04:45:45.194Z,3.17
2022-08-14T04:48:36.639Z,1.97
2022-08-14T04:51:05.861Z,2.87
2022-08-14T04:53:35.453Z,2.20
2022-08-14T04:56:10.406Z,2.13
2022-08-14T04:58:39.075Z,2.57
2022-08-14T05:01:12.819Z,3.33
2022-08-14T05:03:44.476Z,2.63
2022-08-14T05:06:37.199Z,3.20
2022-08-14T05:09:00.001Z,4.13
2022-08-14T05:11:27.295Z,3.10
2022-08-14T05:14:16.649Z,2.73
2022-08-14T05:16:42.525Z,4.10
2022-08-14T05:19:18.345Z,3.17
2022-08-14T05:22:01.287Z,3.17
2022-08-14T05:24:42.999Z,3.70
2022-08-14T05:27:10.323Z,3.43
2022-08-14T05:29:36.719Z,4.00
2022-08-14T05:32:09.049Z,4.30
2022-08-14T05:34:35.485Z,3.97
2022-08-14T05:37:02.936Z,4.60
2022-08-14T05:39:31.082Z,4.07
2022-08-14T05:41:58.073Z,4.37
2022-08-14T05:44:29.148Z,5.20
2022-08-14T05:46:56.956Z,3.40
2022-08-14T05:49:32.885Z,4.13
2022-08-14T05:52:01.674Z,4.07
2022-08-14T05:54:35.263Z,3.20
2022-08-14T05:57:04.290Z,4.70
2022-08-14T05:59:36.664Z,4.73
2022-08-14T06:02:10.529Z,4.53
2022-08-14T06:04:38.774Z,4.30
2022-08-14T06:07:05.752Z,3.30
2022-08-14T06:09:35.802Z,4.43
2022-08-14T06:12:10.786Z,5.10
2022-08-14T06:14:39.186Z,3.30
2022-08-14T06:17:05.957Z,4.00
2022-08-14T06:19:32.386Z,4.13
2022-08-14T06:21:59.669Z,4.27
2022-08-14T06:24:27.212Z,3.70
2022-08-14T06:27:04.527Z,3.67
2022-08-14T06:29:34.753Z,5.07
2022-08-14T06:32:37.716Z,4.33
2022-08-14T06:35:11.335Z,4.17
2022-08-14T06:37:58.454Z,5.60
2022-08-14T06:40:28.274Z,3.40
2022-08-14T06:43:07.157Z,4.60
2022-08-14T06:45:36.210Z,4.03
2022-08-14T06:48:03.380Z,4.40
2022-08-14T06:50:33.564Z,4.97
2022-08-14T06:53:00.269Z,4.67
2022-08-14T06:55:28.196Z,4.27
2022-08-14T06:57:57.495Z,4.20
2022-08-14T07:00:26.896Z,3.73
2022-08-14T07:03:13.261Z,3.97
2022-08-14T07:05:55.067Z,4.37
2022-08-14T07:08:30.972Z,4.57
2022-08-14T07:11:00.776Z,3.30
2022-08-14T07:13:28.402Z,4.40
2022-08-14T07:15:56.581Z,5.00
2022-08-14T07:18:29.913Z,5.20
2022-08-14T07:20:58.342Z,6.10
2022-08-14T07:23:25.862Z,4.20
2022-08-14T07:25:54.796Z,5.50
2022-08-14T07:28:26.900Z,4.90
2022-08-14T07:31:04.420Z,4.43
2022-08-14T07:33:45.645Z,4.00
2022-08-14T07:36:27.699Z,4.10
2022-08-14T07:39:03.067Z,4.60
2022-08-14T07:41:39.089Z,5.10
2022-08-14T07:44:32.332Z,5.13
2022-08-14T07:46:57.860Z,3.77
2022-08-14T07:49:24.561Z,6.63
2022-08-14T07:51:51.141Z,4.77
2022-08-14T07:54:23.544Z,3.60
2022-08-14T07:57:12.110Z,3.80
2022-08-14T07:59:43.478Z,3.73
2022-08-14T08:02:19.011Z,4.47
2022-08-14T08:04:54.901Z,4.17
2022-08-14T08:07:24.882Z,3.83
2022-08-14T08:09:57.893Z,3.60
2022-08-14T08:12:30.169Z,4.23
2022-08-14T08:15:02.787Z,4.10
2022-08-14T08:17:34.974Z,4.67
2022-08-14T08:20:15.638Z,5.07
2022-08-14T08:22:48.478Z,6.07
2022-08-14T08:25:20.567Z,5.10
2022-08-14T08:28:08.860Z,5.67
2022-08-14T08:30:53.169Z,6.20
2022-08-14T08:33:21.881Z,6.10
2022-08-14T08:35:50.627Z,3.80
2022-08-14T08:39:14.442Z,5.40
2022-08-14T08:41:11.115Z,4.13
2022-08-14T08:43:39.223Z,4.13
2022-08-14T08:46:21.707Z,4.20
2022-08-14T08:51:34.502Z,3.23
2022-08-14T08:54:15.324Z,4.03
2022-08-14T08:56:52.008Z,3.00
2022-08-14T08:59:31.187Z,3.27
2022-08-14T09:02:05.304Z,3.53
2022-08-14T09:04:45.615Z,3.07
2022-08-14T09:07:20.137Z,3.30
2022-08-14T09:09:59.372Z,3.27
2022-08-14T09:12:29.882Z,3.90
2022-08-14T09:15:11.510Z,2.87
2022-08-14T09:17:41.263Z,2.33
2022-08-14T09:20:11.719Z,2.43
2022-08-14T09:22:42.567Z,3.47
2022-08-14T09:25:15.517Z,3.07
2022-08-14T09:27:42.123Z,2.20
2022-08-14T09:30:30.696Z,3.77
2022-08-14T09:33:15.583Z,3.00
2022-08-14T09:35:58.329Z,2.83
2022-08-14T09:38:46.466Z,3.53
2022-08-14T09:42:21.747Z,3.17
2022-08-14T09:44:42.785Z,2.50
2022-08-14T09:47:12.481Z,3.03
2022-08-14T09:49:42.774Z,3.10
2022-08-14T09:52:32.768Z,2.57
2022-08-14T09:54:56.663Z,3.03
2022-08-14T09:57:27.728Z,2.57
2022-08-14T09:59:55.792Z,2.20
2022-08-14T10:02:28.605Z,2.60
2022-08-14T10:05:10.245Z,2.83
2022-08-14T10:07:57.500Z,2.37
2022-08-14T10:10:35.129Z,2.03
2022-08-14T10:13:04.630Z,3.10
2022-08-14T10:15:33.208Z,2.10
2022-08-14T10:18:13.496Z,2.60
2022-08-14T10:20:57.440Z,2.80
2022-08-14T10:23:27.372Z,2.90
2022-08-14T10:26:06.600Z,2.17
2022-08-14T10:29:19.811Z,2.73
2022-08-14T10:31:43.179Z,2.27
2022-08-14T10:34:14.087Z,2.40
2022-08-14T10:36:47.536Z,1.90
2022-08-14T10:39:21.717Z,1.63
2022-08-14T10:41:49.353Z,2.10
2022-08-14T10:44:24.438Z,2.27
2022-08-14T10:47:39.094Z,2.13
2022-08-14T10:49:48.410Z,1.10
2022-08-14T10:52:26.639Z,1.57
2022-08-14T10:55:05.414Z,1.53
2022-08-14T10:57:33.246Z,1.50
2022-08-14T11:00:13.842Z,1.90
2022-08-14T11:03:02.085Z,1.83
2022-08-14T11:05:49.253Z,2.77
2022-08-14T11:08:32.667Z,2.20
2022-08-14T11:11:03.172Z,2.23
2022-08-14T11:13:31.359Z,1.63
2022-08-14T11:16:02.671Z,1.53
2022-08-14T11:18:35.899Z,2.40
2022-08-14T11:21:06.759Z,2.27
2022-08-14T11:23:38.607Z,2.20
2022-08-14T11:26:10.314Z,1.67
2022-08-14T11:28:46.216Z,1.73
2022-08-14T11:31:17.193Z,1.50
2022-08-14T11:33:43.700Z,3.00
2022-08-14T11:36:17.908Z,2.00
2022-08-14T11:38:46.183Z,1.30
2022-08-14T11:41:14.237Z,1.10
2022-08-14T11:43:58.069Z,1.73
2022-08-14T11:46:30.609Z,1.80
2022-08-14T11:49:05.181Z,1.30
2022-08-14T11:51:50.802Z,1.37
2022-08-14T11:54:19.645Z,1.70
2022-08-14T11:56:49.872Z,1.47
2022-08-14T11:59:19.701Z,1.03
2022-08-14T12:01:52.818Z,1.00
2022-08-14T12:04:31.610Z,1.00
2022-08-14T12:07:01.292Z,1.47
2022-08-14T12:09:30.235Z,1.50
2022-08-14T12:11:57.169Z,2.27
2022-08-14T12:14:34.548Z,1.10
2022-08-14T12:17:11.798Z,1.33
2022-08-14T12:19:51.211Z,1.33
2022-08-14T12:22:42.287Z,1.80
2022-08-14T12:25:15.281Z,1.50
2022-08-14T12:27:53.199Z,1.40
2022-08-14T12:30:38.020Z,1.23
2022-08-14T12:33:25.668Z,1.13
2022-08-14T12:35:56.460Z,1.87
2022-08-14T12:38:37.682Z,1.23
2022-08-14T12:41:10.548Z,1.10
2022-08-14T12:43:51.704Z,1.27
2022-08-14T12:46:27.263Z,1.63
2022-08-14T12:48:56.056Z,1.80
2022-08-14T12:51:27.102Z,1.63
2022-08-14T12:53:59.224Z,1.40
2022-08-14T12:56:33.772Z,1.40
2022-08-14T12:59:01.808Z,1.20
2022-08-14T13:01:59.070Z,1.80
2022-08-14T13:04:18.913Z,1.37
2022-08-14T13:06:50.595Z,1.63
2022-08-14T13:09:19.617Z,1.67
2022-08-14T13:11:58.834Z,1.90
2022-08-14T13:14:38.357Z,1.30
2022-08-14T13:17:04.967Z,1.07
2022-08-14T13:19:35.512Z,1.67
2022-08-14T13:22:09.599Z,1.50
2022-08-14T13:24:39.481Z,1.37
2022-08-14T13:27:09.749Z,1.50
2022-08-14T13:29:46.594Z,1.83
2022-08-14T13:32:14.395Z,2.07
2022-08-14T13:34:43.628Z,1.23
2022-08-14T13:37:14.265Z,1.57
2022-08-14T13:39:47.667Z,1.70
2022-08-14T13:42:27.731Z,1.30
2022-08-14T13:44:59.117Z,1.90
2022-08-14T13:47:29.765Z,1.30
2022-08-14T13:50:02.904Z,0.97
2022-08-14T13:52:52.287Z,1.63
2022-08-14T13:55:28.596Z,1.60
2022-08-14T13:58:03.209Z,1.90
2022-08-14T14:00:35.721Z,1.80
2022-08-14T14:03:24.254Z,1.90
2022-08-14T14:05:54.349Z,1.60
2022-08-14T14:08:43.515Z,1.73
2022-08-14T14:11:09.854Z,2.00
2022-08-14T14:13:37.667Z,2.03
2022-08-14T14:16:11.286Z,1.43
2022-08-14T14:18:43.810Z,1.27
2022-08-14T14:21:13.669Z,1.87
2022-08-14T14:23:43.830Z,1.00
2022-08-14T14:26:18.857Z,2.47
2022-08-14T14:28:56.503Z,1.70
2022-08-14T14:31:31.336Z,1.63
2022-08-14T14:34:07.781Z,2.23
2022-08-14T14:36:41.619Z,1.50
2022-08-14T14:39:10.436Z,1.50
2022-08-14T14:41:43.687Z,1.20
2022-08-14T14:44:13.668Z,1.30
2022-08-14T14:46:44.850Z,1.43
2022-08-14T14:49:14.373Z,1.93
2022-08-14T14:51:45.107Z,2.20
2022-08-14T14:54:17.722Z,1.93
2022-08-14T14:56:50.363Z,1.00
2022-08-14T14:59:19.541Z,1.97
2022-08-14T15:01:51.187Z,1.70
2022-08-14T15:04:20.889Z,1.57
2022-08-14T15:06:48.517Z,1.83
2022-08-14T15:09:18.168Z,1.90
2022-08-14T15:11:47.037Z,2.20
2022-08-14T15:14:55.028Z,1.63
2022-08-14T15:17:01.122Z,1.67
2022-08-14T15:19:27.572Z,1.73
2022-08-14T15:21:55.323Z,1.97
2022-08-14T15:24:24.272Z,1.77
2022-08-14T15:26:53.333Z,1.80
2022-08-14T15:29:19.739Z,2.03
2022-08-14T15:31:46.164Z,2.13
2022-08-14T15:34:44.430Z,1.50
2022-08-14T15:37:02.270Z,1.60
2022-08-14T15:39:33.833Z,1.60
2022-08-14T15:42:04.092Z,1.00
2022-08-14T15:44:44.808Z,2.03
2022-08-14T15:47:27.727Z,1.00
2022-08-14T15:49:59.096Z,1.60
2022-08-14T15:52:32.125Z,1.43
2022-08-14T15:55:03.443Z,1.80
2022-08-14T15:57:30.823Z,1.10
2022-08-14T16:00:37.845Z,1.60
2022-08-14T16:03:08.686Z,1.53
2022-08-14T16:05:38.507Z,2.00
2022-08-14T16:08:28.611Z,1.67
2022-08-14T16:10:55.792Z,1.37
2022-08-14T16:13:39.245Z,1.47
2022-08-14T16:16:47.218Z,1.63
2022-08-14T16:18:58.238Z,1.50
2022-08-14T16:21:31.608Z,1.47
2022-08-14T16:24:00.367Z,1.63
2022-08-14T16:26:30.056Z,1.30
2022-08-14T16:29:04.793Z,1.33
2022-08-14T16:31:36.247Z,1.27
2022-08-14T16:34:46.138Z,1.70
2022-08-14T16:36:54.547Z,1.20
2022-08-14T16:39:22.784Z,1.17
2022-08-14T16:41:57.981Z,1.27
2022-08-14T16:44:32.878Z,1.40
2022-08-14T16:47:02.648Z,1.37
2022-08-14T16:50:03.455Z,1.30
2022-08-14T16:52:25.158Z,1.30
2022-08-14T16:55:09.334Z,1.83
2022-08-14T16:57:50.044Z,1.40
2022-08-14T17:00:27.979Z,1.17
2022-08-14T17:03:11.760Z,1.70
2022-08-14T17:05:46.701Z,1.37
2022-08-14T17:08:33.474Z,1.90
2022-08-14T17:11:10.824Z,1.60
2022-08-14T17:13:59.590Z,1.70
2022-08-14T17:16:30.922Z,1.90
2022-08-14T17:19:01.759Z,1.47
2022-08-14T17:21:38.426Z,1.50
2022-08-14T17:24:57.174Z,1.40
2022-08-14T17:27:03.642Z,0.90
2022-08-14T17:29:33.809Z,1.70
2022-08-14T17:32:22.440Z,1.27
2022-08-14T17:34:55.428Z,1.27
2022-08-14T17:37:29.605Z,0.97
2022-08-14T17:40:15.457Z,1.30
2022-08-14T17:42:51.363Z,1.40
2022-08-14T17:45:26.851Z,1.10
2022-08-14T17:47:57.443Z,0.90
2022-08-14T17:51:03.091Z,1.40
2022-08-14T17:53:33.145Z,1.43
2022-08-14T17:56:03.994Z,1.00
2022-08-14T17:58:38.586Z,1.90
2022-08-14T18:01:13.130Z,1.60
2022-08-14T18:03:44.887Z,1.27
2022-08-14T18:06:39.499Z,1.27
2022-08-14T18:09:25.115Z,1.00
2022-08-14T18:11:55.168Z,2.10
2022-08-14T18:14:32.308Z,2.17
2022-08-14T18:17:01.454Z,0.83
2022-08-14T18:19:30.509Z,1.97
2022-08-14T18:21:59.531Z,1.30
2022-08-14T18:24:29.676Z,1.30
2022-08-14T18:27:23.106Z,1.10
2022-08-14T18:29:54.952Z,1.97
2022-08-14T18:32:31.242Z,1.13
2022-08-14T18:35:00.588Z,1.00
2022-08-14T18:37:30.808Z,1.50
2022-08-14T18:40:16.238Z,1.17
2022-08-14T18:42:58.169Z,1.17
2022-08-14T18:45:41.399Z,1.80
2022-08-14T18:48:50.609Z,1.43
2022-08-14T18:51:45.724Z,1.77
2022-08-14T18:54:27.252Z,1.83
2022-08-14T18:57:01.511Z,1.70
2022-08-14T18:59:35.881Z,2.40
2022-08-14T19:02:30.707Z,1.30
2022-08-14T19:05:02.533Z,1.47
2022-08-14T19:07:34.125Z,1.83
2022-08-14T19:10:05.747Z,1.50
2022-08-14T19:12:50.623Z,1.00
2022-08-14T19:15:20.919Z,1.93
2022-08-14T19:18:14.381Z,2.30
2022-08-14T19:20:53.454Z,1.03
2022-08-14T19:23:23.851Z,1.80
2022-08-14T19:26:36.173Z,1.60
2022-08-14T19:29:38.389Z,1.43
2022-08-14T19:32:38.883Z,1.63
2022-08-14T19:35:18.041Z,1.33
2022-08-14T19:37:52.570Z,1.70
2022-08-14T19:40:36.081Z,2.07
2022-08-14T19:43:06.333Z,1.30
2022-08-14T19:45:33.854Z,1.57
2022-08-14T19:48:01.560Z,1.50
2022-08-14T19:50:38.957Z,1.50
2022-08-14T19:53:17.326Z,1.40
2022-08-14T19:55:54.513Z,1.03
2022-08-14T19:58:30.050Z,1.27
2022-08-14T20:00:59.046Z,1.20
2022-08-14T20:03:25.621Z,1.50
2022-08-14T20:06:12.847Z,1.07
2022-08-14T20:10:58.840Z,1.07
2022-08-14T20:11:43.382Z,2.00
2022-08-14T20:14:20.506Z,1.93
2022-08-14T20:16:55.686Z,1.20
2022-08-14T20:19:31.241Z,1.80
2022-08-14T20:22:35.337Z,1.43
2022-08-14T20:24:54.062Z,2.60
2022-08-14T20:27:21.082Z,1.57
2022-08-14T20:30:34.908Z,1.57
2022-08-14T20:33:07.866Z,1.77
2022-08-14T20:35:41.950Z,1.70
2022-08-14T20:38:29.663Z,1.17
2022-08-14T20:41:06.477Z,1.13
2022-08-14T20:43:55.229Z,1.23
2022-08-14T20:46:29.502Z,1.57
2022-08-14T20:49:10.739Z,1.03
2022-08-14T20:51:59.439Z,1.30
2022-08-14T20:54:34.250Z,1.33
2022-08-14T20:57:17.890Z,1.37
2022-08-14T20:59:50.310Z,1.83
2022-08-14T21:02:34.727Z,1.67
2022-08-14T21:05:16.931Z,1.70
2022-08-14T21:07:50.232Z,0.80
2022-08-14T21:10:33.836Z,1.40
2022-08-14T21:14:09.259Z,0.83
2022-08-14T21:15:57.206Z,1.20
2022-08-14T21:18:47.259Z,1.33
2022-08-14T21:21:18.667Z,1.10
2022-08-14T21:23:54.157Z,1.23
2022-08-14T21:26:50.443Z,1.43
2022-08-14T21:29:11.311Z,1.17
2022-08-14T21:31:38.723Z,1.17
2022-08-14T21:34:31.079Z,1.57
2022-08-14T21:36:54.316Z,1.10
2022-08-14T21:39:24.050Z,0.90
2022-08-14T21:41:58.849Z,1.80
2022-08-14T21:44:36.165Z,1.13
2022-08-14T21:47:11.891Z,1.27
2022-08-14T21:49:40.036Z,0.90
2022-08-14T21:52:50.979Z,0.87
2022-08-14T21:55:09.142Z,0.77
2022-08-14T21:58:03.817Z,1.23
2022-08-14T22:00:34.679Z,1.23
2022-08-14T22:03:04.724Z,1.23
2022-08-14T22:05:31.244Z,1.10
2022-08-14T22:07:58.362Z,1.37
2022-08-14T22:10:25.420Z,1.23
2022-08-14T22:13:00.880Z,1.23
2022-08-14T22:15:29.966Z,1.10
2022-08-14T22:17:58.049Z,0.70
2022-08-14T22:20:28.611Z,1.20
2022-08-14T22:22:56.748Z,1.10
2022-08-14T22:25:33.317Z,1.43
2022-08-14T22:28:02.928Z,0.90
2022-08-14T22:30:30.072Z,1.60
2022-08-14T22:32:58.447Z,1.10
2022-08-14T22:35:28.207Z,1.13
2022-08-14T22:38:32.615Z,1.03
2022-08-14T22:41:20.331Z,1.50
2022-08-14T22:43:35.179Z,1.87
2022-08-14T22:46:06.203Z,0.97
2022-08-14T22:48:43.041Z,1.20
2022-08-14T22:51:13.438Z,2.10
2022-08-14T22:53:40.186Z,1.10
2022-08-14T22:56:20.666Z,1.67
2022-08-14T22:58:49.956Z,1.00
2022-08-14T23:01:56.920Z,1.03
2022-08-14T23:04:35.120Z,0.80
2022-08-14T23:07:21.753Z,0.70
2022-08-14T23:09:56.902Z,0.83
2022-08-14T23:12:27.672Z,1.10
2022-08-14T23:14:55.627Z,0.80
2022-08-14T23:17:22.597Z,0.80
2022-08-14T23:19:49.027Z,1.30
2022-08-14T23:22:24.233Z,0.70
2022-08-14T23:24:53.054Z,1.43
2022-08-14T23:27:31.776Z,1.10
2022-08-14T23:30:34.578Z,0.80
2022-08-14T23:33:02.313Z,1.17
2022-08-14T23:35:32.953Z,0.70
2022-08-14T23:38:01.831Z,1.23
2022-08-14T23:40:30.285Z,1.17
2022-08-14T23:43:08.008Z,1.13
2022-08-14T23:45:42.725Z,0.70
2022-08-14T23:48:12.487Z,1.70
2022-08-14T23:50:40.124Z,0.97
2022-08-14T23:53:28.198Z,1.17
2022-08-14T23:56:15.905Z,1.43
2022-08-14T23:58:49.283Z,1.20
